createdAt,value
2019-04-04T00:02:09.322Z,86209.39
2019-04-04T00:04:36.121Z,86206.94
2019-04-04T00:07:03.028Z,86202.48
2019-04-04T00:09:31.206Z,86191.26
2019-04-04T00:11:58.283Z,86186.97
2019-04-04T00:14:25.103Z,86188.45
2019-04-04T00:16:51.828Z,86190.70
2019-04-04T00:19:18.574Z,86190.13
2019-04-04T00:21:45.323Z,86189.00
2019-04-04T00:24:12.053Z,86175.74
2019-04-04T00:26:41.646Z,86187.52
2019-04-04T00:29:07.416Z,86177.61
2019-04-04T00:31:34.183Z,86176.69
2019-04-04T00:34:01.023Z,86178.34
2019-04-04T00:36:27.810Z,86178.55
2019-04-04T00:38:54.583Z,86166.57
2019-04-04T00:41:21.384Z,86164.36
2019-04-04T00:43:48.160Z,86157.42
2019-04-04T00:46:14.988Z,86158.55
2019-04-04T00:48:41.730Z,86162.11
2019-04-04T00:51:08.629Z,86170.88
2019-04-04T00:53:35.522Z,86163.03
2019-04-04T00:56:02.279Z,86156.14
2019-04-04T00:58:29.039Z,86153.14
2019-04-04T01:00:55.885Z,86148.45
2019-04-04T01:03:22.899Z,86142.48
2019-04-04T01:05:49.696Z,86148.29
2019-04-04T01:08:16.500Z,86148.66
2019-04-04T01:11:02.975Z,86155.73
2019-04-04T01:13:29.781Z,86148.47
2019-04-04T01:15:56.500Z,86140.24
2019-04-04T01:18:23.265Z,86143.05
2019-04-04T01:20:50.648Z,86143.05
2019-04-04T01:23:18.148Z,86141.18
2019-04-04T01:25:45.078Z,86142.12
2019-04-04T01:28:11.859Z,86138.93
2019-04-04T01:30:38.875Z,86129.97
2019-04-04T01:33:05.615Z,86127.16
2019-04-04T01:35:34.410Z,86121.56
2019-04-04T01:38:01.169Z,86119.50
2019-04-04T01:40:28.157Z,86115.41
2019-04-04T01:42:55.224Z,86107.56
2019-04-04T01:45:21.930Z,86100.64
2019-04-04T01:47:48.742Z,86097.83
2019-04-04T01:50:15.486Z,86104.20
2019-04-04T01:52:42.207Z,86093.53
2019-04-04T01:55:08.969Z,86104.00
2019-04-04T02:00:30.807Z,86090.18
2019-04-04T02:02:57.558Z,86083.46
2019-04-04T02:05:26.818Z,86072.62
2019-04-04T02:07:52.946Z,86082.33
2019-04-04T02:10:19.751Z,86082.16
2019-04-04T02:12:46.519Z,86079.92
2019-04-04T02:15:14.355Z,86078.22
2019-04-04T02:17:41.763Z,86068.51
2019-04-04T02:20:08.814Z,86071.31
2019-04-04T02:22:35.551Z,86062.16
2019-04-04T02:25:03.720Z,86068.70
2019-04-04T02:27:30.677Z,86062.70
2019-04-04T02:29:57.411Z,86058.98
2019-04-04T02:32:26.694Z,86052.08
2019-04-04T02:34:52.767Z,86045.91
2019-04-04T02:37:21.233Z,86045.35
2019-04-04T02:39:48.187Z,86043.49
2019-04-04T02:42:14.908Z,86038.24
2019-04-04T02:44:41.654Z,86028.53
2019-04-04T02:47:08.619Z,86031.53
2019-04-04T02:49:35.347Z,86024.06
2019-04-04T02:52:02.194Z,86031.34
2019-04-04T02:54:28.921Z,86030.78
2019-04-04T02:56:55.684Z,86027.04
2019-04-04T02:59:22.438Z,86027.39
2019-04-04T03:01:49.274Z,86025.16
2019-04-04T03:04:16.170Z,86024.59
2019-04-04T03:06:42.950Z,86023.65
2019-04-04T03:09:10.541Z,86020.86
2019-04-04T03:11:37.611Z,86017.89
2019-04-04T03:14:04.667Z,86022.39
2019-04-04T03:16:31.684Z,86016.23
2019-04-04T03:18:58.480Z,86014.92
2019-04-04T03:21:25.225Z,86022.00
2019-04-04T03:23:51.977Z,86007.83
2019-04-04T03:26:20.125Z,86007.07
2019-04-04T03:28:47.226Z,86009.70
2019-04-04T03:31:13.970Z,86011.01
2019-04-04T03:33:40.751Z,85999.05
2019-04-04T03:36:07.495Z,86002.44
2019-04-04T03:38:34.225Z,86005.22
2019-04-04T03:41:01.008Z,86008.97
2019-04-04T03:43:27.745Z,85987.47
2019-04-04T03:45:54.493Z,85995.71
2019-04-04T03:48:21.254Z,86009.13
2019-04-04T03:50:47.995Z,85994.95
2019-04-04T03:53:17.356Z,85990.27
2019-04-04T03:55:43.322Z,85991.77
2019-04-04T03:58:10.086Z,85987.30
2019-04-04T04:00:40.302Z,85982.43
2019-04-04T04:03:05.443Z,85981.31
2019-04-04T04:05:35.570Z,85981.67
2019-04-04T04:08:00.821Z,85978.72
2019-04-04T04:10:32.226Z,85976.66
2019-04-04T04:12:56.090Z,85976.29
2019-04-04T04:15:22.856Z,85967.14
2019-04-04T04:17:49.572Z,85977.78
2019-04-04T04:20:16.518Z,85977.40
2019-04-04T04:22:43.250Z,85966.77
2019-04-04T04:25:10.106Z,85966.21
2019-04-04T04:27:36.885Z,85967.51
2019-04-04T04:30:07.187Z,85972.38
2019-04-04T04:32:37.235Z,85965.47
2019-04-04T04:35:07.489Z,85956.86
2019-04-04T04:37:33.138Z,85958.73
2019-04-04T04:40:00.004Z,85969.92
2019-04-04T04:42:27.498Z,85963.03
2019-04-04T04:44:54.389Z,85959.48
2019-04-04T04:47:23.843Z,85958.75
2019-04-04T04:49:49.736Z,85954.05
2019-04-04T04:52:16.549Z,85955.74
2019-04-04T04:54:43.279Z,85948.45
2019-04-04T04:57:17.523Z,85939.11
2019-04-04T04:59:38.620Z,85939.28
2019-04-04T05:02:05.370Z,85929.39
2019-04-04T05:04:32.081Z,85939.46
2019-04-04T05:06:58.925Z,85922.64
2019-04-04T05:09:25.651Z,85930.13
2019-04-04T05:11:52.379Z,85925.64
2019-04-04T05:14:19.166Z,85917.06
2019-04-04T05:16:45.890Z,85926.06
2019-04-04T05:19:12.766Z,85918.03
2019-04-04T05:21:39.542Z,85918.43
2019-04-04T05:24:06.301Z,85911.31
2019-04-04T05:26:34.515Z,85907.37
2019-04-04T05:29:01.626Z,85901.23
2019-04-04T05:31:28.384Z,85909.45
2019-04-04T05:33:55.194Z,85900.84
2019-04-04T05:36:22.013Z,85894.88
2019-04-04T05:38:48.830Z,85898.42
2019-04-04T05:41:16.617Z,85900.09
2019-04-04T05:43:43.599Z,85908.86
2019-04-04T05:46:10.456Z,85906.05
2019-04-04T05:48:37.150Z,85898.95
2019-04-04T05:51:03.915Z,85910.14
2019-04-04T05:53:30.765Z,85906.03
2019-04-04T05:55:57.485Z,85902.47
2019-04-04T05:58:24.208Z,85913.66
2019-04-04T06:00:50.980Z,85911.41
2019-04-04T06:03:17.738Z,85903.53
2019-04-04T06:05:44.572Z,85898.86
2019-04-04T06:08:11.359Z,85890.81
2019-04-04T06:10:38.103Z,85891.54
2019-04-04T06:13:04.936Z,85888.14
2019-04-04T06:15:32.194Z,85893.37
2019-04-04T06:17:59.532Z,85894.13
2019-04-04T06:20:26.294Z,85894.52
2019-04-04T06:22:53.031Z,85894.32
2019-04-04T06:25:19.847Z,85901.22
2019-04-04T06:27:46.554Z,85898.22
2019-04-04T06:30:13.574Z,85897.83
2019-04-04T06:32:40.408Z,85906.81
2019-04-04T06:35:07.337Z,85909.63
2019-04-04T06:37:34.354Z,85901.95
2019-04-04T06:40:01.465Z,85903.12
2019-04-04T06:42:28.201Z,85906.48
2019-04-04T06:44:54.988Z,85898.66
2019-04-04T06:47:23.129Z,85901.48
2019-04-04T06:49:50.292Z,85902.95
2019-04-04T06:52:18.476Z,85891.18
2019-04-04T06:54:45.589Z,85900.53
2019-04-04T06:57:12.346Z,85896.58
2019-04-04T06:59:39.116Z,85890.98
2019-04-04T07:02:05.864Z,85887.75
2019-04-04T07:04:35.844Z,85886.41
2019-04-04T07:07:01.285Z,85883.56
2019-04-04T07:09:28.064Z,85884.94
2019-04-04T07:11:54.837Z,85889.42
2019-04-04T07:14:21.566Z,85888.53
2019-04-04T07:16:48.478Z,85888.20
2019-04-04T07:19:15.284Z,85889.90
2019-04-04T07:21:41.955Z,85873.42
2019-04-04T07:24:08.747Z,85874.70
2019-04-04T07:26:35.501Z,85869.86
2019-04-04T07:29:02.288Z,85870.05
2019-04-04T07:31:29.038Z,85872.97
2019-04-04T07:33:55.776Z,85872.77
2019-04-04T07:36:22.591Z,85867.66
2019-04-04T07:38:49.323Z,85864.97
2019-04-04T07:41:16.038Z,85856.98
2019-04-04T07:43:42.906Z,85853.71
2019-04-04T07:46:16.375Z,85849.39
2019-04-04T07:48:38.196Z,85850.70
2019-04-04T07:51:04.990Z,85849.34
2019-04-04T07:53:31.717Z,85848.58
2019-04-04T07:55:58.433Z,85853.45
2019-04-04T07:58:25.242Z,85873.09
2019-04-04T08:00:52.003Z,85879.15
2019-04-04T08:03:18.733Z,85877.52
2019-04-04T08:05:45.531Z,85878.69
2019-04-04T08:08:12.281Z,85864.02
2019-04-04T08:10:39.068Z,85875.83
2019-04-04T08:13:05.859Z,85875.88
2019-04-04T08:15:32.726Z,85873.81
2019-04-04T08:17:59.507Z,85871.55
2019-04-04T08:20:26.230Z,85871.34
2019-04-04T08:22:52.987Z,85873.96
2019-04-04T08:25:19.772Z,85867.98
2019-04-04T08:27:46.501Z,85855.80
2019-04-04T08:30:13.763Z,85864.38
2019-04-04T08:32:40.577Z,85853.42
2019-04-04T08:35:07.381Z,85851.88
2019-04-04T08:37:34.211Z,85849.13
2019-04-04T08:40:00.976Z,85840.47
2019-04-04T08:42:27.717Z,85842.38
2019-04-04T08:44:54.534Z,85838.99
2019-04-04T08:47:21.272Z,85838.78
2019-04-04T08:49:48.023Z,85839.70
2019-04-04T08:52:16.784Z,85851.30
2019-04-04T08:54:43.370Z,85863.23
2019-04-04T08:57:10.116Z,85875.33
2019-04-04T08:59:36.890Z,85878.09
2019-04-04T09:02:03.831Z,85872.05
2019-04-04T09:04:30.672Z,85878.23
2019-04-04T09:06:57.447Z,85885.30
2019-04-04T09:09:24.230Z,85884.63
2019-04-04T09:11:51.170Z,85889.15
2019-04-04T09:14:17.928Z,85889.55
2019-04-04T09:16:44.708Z,85885.42
2019-04-04T09:19:11.541Z,85888.39
2019-04-04T09:21:38.288Z,85880.86
2019-04-04T09:24:05.045Z,85879.90
2019-04-04T09:26:31.841Z,85872.64
2019-04-04T09:28:58.588Z,85890.97
2019-04-04T09:31:25.366Z,85893.75
2019-04-04T09:33:52.098Z,85891.13
2019-04-04T09:36:18.821Z,85886.53
2019-04-04T09:38:45.635Z,85885.43
2019-04-04T09:41:12.390Z,85890.27
2019-04-04T09:43:39.130Z,85888.00
2019-04-04T09:46:05.962Z,85898.39
2019-04-04T09:48:32.695Z,85905.93
2019-04-04T09:50:59.442Z,85908.52
2019-04-04T09:53:26.222Z,85912.44
2019-04-04T09:55:52.962Z,85920.66
2019-04-04T09:58:19.706Z,85921.24
2019-04-04T10:00:46.500Z,85919.94
2019-04-04T10:03:13.270Z,85922.03
2019-04-04T10:05:40.007Z,85916.32
2019-04-04T10:08:06.883Z,85921.83
2019-04-04T10:10:33.638Z,85905.87
2019-04-04T10:13:00.434Z,85908.16
2019-04-04T10:15:27.232Z,85913.05
2019-04-04T10:17:53.992Z,85913.41
2019-04-04T10:20:20.834Z,85909.48
2019-04-04T10:22:47.625Z,85899.72
2019-04-04T10:25:14.382Z,85892.20
2019-04-04T10:27:41.117Z,85890.46
2019-04-04T10:30:09.209Z,85887.02
2019-04-04T10:32:36.063Z,85893.48
2019-04-04T10:35:05.831Z,85876.94
2019-04-04T10:37:32.758Z,85869.48
2019-04-04T10:39:59.510Z,85874.37
2019-04-04T10:42:26.398Z,85870.57
2019-04-04T10:44:53.159Z,85878.66
2019-04-04T10:47:19.925Z,85869.16
2019-04-04T10:49:54.848Z,85869.36
2019-04-04T10:52:30.080Z,85871.22
2019-04-04T10:54:56.910Z,85863.89
2019-04-04T10:57:23.676Z,85867.83
2019-04-04T10:59:50.511Z,85867.03
2019-04-04T11:02:17.288Z,85864.80
2019-04-04T11:04:44.276Z,85870.81
2019-04-04T11:07:11.076Z,85870.11
2019-04-04T11:09:42.108Z,85868.09
2019-04-04T11:12:09.458Z,85871.53
2019-04-04T11:14:36.249Z,85862.95
2019-04-04T11:17:03.155Z,85857.53
2019-04-04T11:19:31.282Z,85868.11
2019-04-04T11:21:58.339Z,85863.95
2019-04-04T11:24:25.132Z,85864.91
2019-04-04T11:26:51.896Z,85870.72
2019-04-04T11:29:18.645Z,85867.53
2019-04-04T11:31:45.485Z,85863.00
2019-04-04T11:34:12.248Z,85856.19
2019-04-04T11:36:38.968Z,85861.77
2019-04-04T11:39:06.263Z,85850.81
2019-04-04T11:41:33.019Z,85856.60
2019-04-04T11:43:59.889Z,85860.91
2019-04-04T11:46:26.621Z,85861.80
2019-04-04T11:48:53.376Z,85860.27
2019-04-04T11:51:20.188Z,85853.30
2019-04-04T11:53:46.928Z,85846.66
2019-04-04T11:56:13.688Z,85843.70
2019-04-04T11:58:40.481Z,85842.60
2019-04-04T12:01:07.216Z,85846.95
2019-04-04T12:03:34.007Z,85841.96
2019-04-04T12:06:00.738Z,85846.19
2019-04-04T12:08:27.514Z,85837.01
2019-04-04T12:10:54.326Z,85838.94
2019-04-04T12:13:21.124Z,85844.12
2019-04-04T12:15:47.883Z,85850.88
2019-04-04T12:18:14.715Z,85845.63
2019-04-04T12:20:43.393Z,85852.97
2019-04-04T12:23:10.008Z,85839.26
2019-04-04T12:25:36.808Z,85825.55
2019-04-04T12:28:03.736Z,85828.58
2019-04-04T12:30:30.500Z,85820.70
2019-04-04T12:32:57.295Z,85823.14
2019-04-04T12:35:24.087Z,85825.70
2019-04-04T12:37:50.813Z,85809.72
2019-04-04T12:40:20.954Z,85809.31
2019-04-04T12:42:46.159Z,85815.96
2019-04-04T12:45:13.203Z,85807.13
2019-04-04T12:47:40.011Z,85804.56
2019-04-04T12:50:07.163Z,85809.65
2019-04-04T12:52:36.809Z,85813.05
2019-04-04T12:55:04.886Z,85809.86
2019-04-04T12:57:31.617Z,85796.53
2019-04-04T12:59:58.403Z,85801.37
2019-04-04T13:02:25.160Z,85800.97
2019-04-04T13:04:51.954Z,85802.97
2019-04-04T13:07:18.870Z,85799.51
2019-04-04T13:09:45.602Z,85809.97
2019-04-04T13:12:12.445Z,85806.60
2019-04-04T13:14:39.368Z,85806.38
2019-04-04T13:17:06.991Z,85807.27
2019-04-04T13:19:33.888Z,85803.27
2019-04-04T13:22:00.688Z,85796.77
2019-04-04T13:24:27.428Z,85805.82
2019-04-04T13:26:54.298Z,85797.89
2019-04-04T13:29:21.042Z,85799.64
2019-04-04T13:31:47.796Z,85800.26
2019-04-04T13:34:14.574Z,85798.91
2019-04-04T13:36:41.327Z,85799.95
2019-04-04T13:39:08.786Z,85794.27
2019-04-04T13:41:35.558Z,85784.79
2019-04-04T13:44:02.317Z,85796.91
2019-04-04T13:46:29.425Z,85792.95
2019-04-04T13:48:56.218Z,85800.16
2019-04-04T13:51:25.432Z,85801.54
2019-04-04T13:53:51.544Z,85805.85
2019-04-04T13:56:18.262Z,85800.79
2019-04-04T13:58:47.365Z,85794.04
2019-04-04T14:01:13.559Z,85797.10
2019-04-04T14:03:40.344Z,85802.81
2019-04-04T14:06:07.164Z,85794.66
2019-04-04T14:08:33.941Z,85803.01
2019-04-04T14:11:00.685Z,85798.77
2019-04-04T14:13:27.543Z,85794.04
2019-04-04T14:15:54.294Z,85795.36
2019-04-04T14:18:21.097Z,85796.89
2019-04-04T14:20:49.233Z,85791.41
2019-04-04T14:23:16.922Z,85796.14
2019-04-04T14:25:43.657Z,85797.61
2019-04-04T14:28:10.449Z,85801.45
2019-04-04T14:30:37.180Z,85786.75
2019-04-04T14:33:03.918Z,85785.09
2019-04-04T14:35:30.686Z,85784.73
2019-04-04T14:37:57.433Z,85785.70
2019-04-04T14:40:24.261Z,85787.76
2019-04-04T14:42:52.257Z,85776.06
2019-04-04T14:45:18.988Z,85777.09
2019-04-04T14:47:45.764Z,85784.28
2019-04-04T14:50:12.520Z,85781.09
2019-04-04T14:52:39.797Z,85790.38
2019-04-04T14:55:07.161Z,85787.58
2019-04-04T14:57:33.949Z,85786.13
2019-04-04T15:00:00.756Z,85784.60
2019-04-04T15:02:27.493Z,85786.13
2019-04-04T15:04:56.092Z,85781.34
2019-04-04T15:07:22.931Z,85785.00
2019-04-04T15:09:49.663Z,85783.41
2019-04-04T15:12:16.451Z,85788.25
2019-04-04T15:14:43.279Z,85762.80
2019-04-04T15:17:10.011Z,85762.70
2019-04-04T15:19:37.758Z,85770.80
2019-04-04T15:22:04.630Z,85762.86
2019-04-04T15:24:33.197Z,85771.39
2019-04-04T15:26:59.927Z,85760.89
2019-04-04T15:29:26.714Z,85759.17
2019-04-04T15:31:53.502Z,85746.64
2019-04-04T15:34:20.260Z,85736.92
2019-04-04T15:36:47.106Z,85737.21
2019-04-04T15:39:15.964Z,85738.67
2019-04-04T15:41:42.436Z,85734.59
2019-04-04T15:44:09.185Z,85733.84
2019-04-04T15:46:35.929Z,85740.27
2019-04-04T15:49:02.869Z,85740.42
2019-04-04T15:51:29.645Z,85725.66
2019-04-04T15:53:56.428Z,85731.09
2019-04-04T15:56:23.166Z,85740.67
2019-04-04T15:58:49.991Z,85743.45
2019-04-04T16:01:16.751Z,85742.33
2019-04-04T16:03:43.525Z,85746.33
2019-04-04T16:06:10.409Z,85739.64
2019-04-04T16:08:37.175Z,85736.27
2019-04-04T16:11:04.581Z,85732.83
2019-04-04T16:13:33.396Z,85720.09
2019-04-04T16:16:00.204Z,85722.24
2019-04-04T16:18:27.003Z,85713.88
2019-04-04T16:20:53.832Z,85703.38
2019-04-04T16:23:20.634Z,85711.69
2019-04-04T16:25:47.484Z,85708.88
2019-04-04T16:28:14.202Z,85710.37
2019-04-04T16:30:40.949Z,85713.43
2019-04-04T16:33:07.772Z,85722.43
2019-04-04T16:35:34.555Z,85720.23
2019-04-04T16:38:01.225Z,85730.29
2019-04-04T16:40:28.023Z,85735.61
2019-04-04T16:42:54.744Z,85745.46
2019-04-04T16:45:21.496Z,85753.25
2019-04-04T16:47:48.331Z,85755.52
2019-04-04T16:50:15.255Z,85753.34
2019-04-04T16:52:41.989Z,85750.97
2019-04-04T16:55:09.379Z,85753.64
2019-04-04T16:57:36.132Z,85744.49
2019-04-04T17:00:07.461Z,85748.63
2019-04-04T17:02:34.254Z,85742.73
2019-04-04T17:05:00.989Z,85745.72
2019-04-04T17:07:27.874Z,85742.59
2019-04-04T17:09:54.583Z,85745.42
2019-04-04T17:12:21.334Z,85745.27
2019-04-04T17:14:48.138Z,85743.26
2019-04-04T17:17:14.894Z,85746.63
2019-04-04T17:19:41.650Z,85751.70
2019-04-04T17:22:08.488Z,85756.95
2019-04-04T17:24:35.259Z,85755.80
2019-04-04T17:27:02.072Z,85757.76
2019-04-04T17:29:28.801Z,85748.95
2019-04-04T17:31:55.960Z,85753.42
2019-04-04T17:34:23.018Z,85753.27
2019-04-04T17:36:50.240Z,85752.17
2019-04-04T17:39:17.102Z,85755.34
2019-04-04T17:41:43.853Z,85764.55
2019-04-04T17:44:10.607Z,85755.38
2019-04-04T17:46:37.807Z,85753.53
2019-04-04T17:49:04.613Z,85751.86
2019-04-04T17:51:51.364Z,85751.51
2019-04-04T17:54:18.062Z,85756.34
2019-04-04T17:56:44.789Z,85752.06
2019-04-04T17:59:11.596Z,85749.45
2019-04-04T18:01:38.344Z,85752.66
2019-04-04T18:04:05.222Z,85742.95
2019-04-04T18:06:31.934Z,85750.80
2019-04-04T18:08:58.679Z,85744.27
2019-04-04T18:11:25.470Z,85749.73
2019-04-04T18:13:52.203Z,85747.32
2019-04-04T18:16:18.935Z,85743.44
2019-04-04T18:18:45.749Z,85736.34
2019-04-04T18:21:12.468Z,85743.60
2019-04-04T18:23:39.275Z,85749.27
2019-04-04T18:26:06.155Z,85762.50
2019-04-04T18:28:32.867Z,85768.48
2019-04-04T18:30:59.601Z,85764.00
2019-04-04T18:33:26.425Z,85774.66
2019-04-04T18:35:53.137Z,85777.80
2019-04-04T18:38:19.948Z,85785.28
2019-04-04T18:40:46.723Z,85792.94
2019-04-04T18:43:13.544Z,85790.91
2019-04-04T18:45:48.736Z,85795.03
2019-04-04T18:48:15.515Z,85786.83
2019-04-04T18:50:42.236Z,85791.66
2019-04-04T18:53:09.342Z,85788.10
2019-04-04T18:55:37.207Z,85788.10
2019-04-04T18:58:03.984Z,85787.74
2019-04-04T19:00:30.794Z,85788.69
2019-04-04T19:02:57.559Z,85785.87
2019-04-04T19:05:24.331Z,85787.18
2019-04-04T19:07:51.219Z,85786.63
2019-04-04T19:10:18.386Z,85793.56
2019-04-04T19:12:45.119Z,85798.40
2019-04-04T19:15:13.323Z,85800.49
2019-04-04T19:17:40.060Z,85795.81
2019-04-04T19:20:09.948Z,85793.63
2019-04-04T19:22:36.800Z,85800.72
2019-04-04T19:25:08.011Z,85795.52
2019-04-04T19:27:34.791Z,85786.57
2019-04-04T19:30:02.120Z,85787.13
2019-04-04T19:32:28.855Z,85788.44
2019-04-04T19:34:55.637Z,85783.23
2019-04-04T19:37:22.428Z,85786.97
2019-04-04T19:39:49.201Z,85781.80
2019-04-04T19:42:16.090Z,85789.47
2019-04-04T19:44:52.629Z,85781.09
2019-04-04T19:47:11.342Z,85779.81
2019-04-04T19:49:38.168Z,85776.84
2019-04-04T19:52:04.893Z,85764.00
2019-04-04T19:54:31.658Z,85766.44
2019-04-04T19:56:58.551Z,85767.21
2019-04-04T19:59:25.515Z,85775.98
2019-04-04T20:01:52.250Z,85780.49
2019-04-04T20:04:19.049Z,85777.49
2019-04-04T20:06:45.821Z,85781.80
2019-04-04T20:09:12.754Z,85776.40
2019-04-04T20:11:39.536Z,85784.59
2019-04-04T20:14:06.282Z,85778.30
2019-04-04T20:16:33.131Z,85780.32
2019-04-04T20:18:59.853Z,85778.30
2019-04-04T20:21:26.577Z,85785.59
2019-04-04T20:23:53.559Z,85792.48
2019-04-04T20:26:20.709Z,85800.67
2019-04-04T20:28:47.485Z,85801.06
2019-04-04T20:31:14.309Z,85791.34
2019-04-04T20:33:41.059Z,85791.74
2019-04-04T20:36:07.815Z,85794.53
2019-04-04T20:38:34.655Z,85793.04
2019-04-04T20:41:01.387Z,85797.91
2019-04-04T20:43:28.160Z,85790.98
2019-04-04T20:45:54.981Z,85787.28
2019-04-04T20:48:21.707Z,85789.31
2019-04-04T20:50:48.538Z,85788.00
2019-04-04T20:53:15.295Z,85778.50
2019-04-04T20:55:44.269Z,85779.24
2019-04-04T20:58:11.078Z,85775.91
2019-04-04T21:00:37.881Z,85776.28
2019-04-04T21:03:04.651Z,85774.43
2019-04-04T21:05:31.418Z,85778.16
2019-04-04T21:07:58.156Z,85779.27
2019-04-04T21:10:25.128Z,85775.73
2019-04-04T21:12:51.889Z,85779.09
2019-04-04T21:15:18.657Z,85781.69
2019-04-04T21:17:45.486Z,85787.10
2019-04-04T21:20:12.410Z,85792.31
2019-04-04T21:22:39.179Z,85793.23
2019-04-04T21:25:06.041Z,85798.09
2019-04-04T21:27:32.804Z,85797.52
2019-04-04T21:29:59.644Z,85800.50
2019-04-04T21:32:26.395Z,85799.01
2019-04-04T21:34:53.165Z,85802.92
2019-04-04T21:37:19.974Z,85803.30
2019-04-04T21:39:46.693Z,85804.99
2019-04-04T21:42:13.420Z,85792.48
2019-04-04T21:44:40.252Z,85804.42
2019-04-04T21:47:07.015Z,85801.06
2019-04-04T21:49:33.767Z,85802.75
2019-04-04T21:52:00.575Z,85798.64
2019-04-04T21:54:27.368Z,85797.16
2019-04-04T21:56:54.135Z,85793.79
2019-04-04T21:59:20.949Z,85792.69
2019-04-04T22:01:47.672Z,85790.08
2019-04-04T22:04:14.395Z,85781.70
2019-04-04T22:06:41.242Z,85780.75
2019-04-04T22:09:09.878Z,85780.02
2019-04-04T22:11:36.655Z,85772.92
2019-04-04T22:14:04.347Z,85774.99
2019-04-04T22:16:31.070Z,85778.53
2019-04-04T22:18:57.937Z,85774.24
2019-04-04T22:21:25.067Z,85775.18
2019-04-04T22:23:51.801Z,85772.56
2019-04-04T22:26:18.617Z,85773.86
2019-04-04T22:28:45.338Z,85782.25
2019-04-04T22:31:12.138Z,85773.69
2019-04-04T22:33:39.000Z,85773.13
2019-04-04T22:36:05.729Z,85767.17
2019-04-04T22:38:32.454Z,85769.22
2019-04-04T22:40:59.253Z,85765.31
2019-04-04T22:43:25.992Z,85765.13
2019-04-04T22:45:52.736Z,85757.48
2019-04-04T22:48:19.620Z,85755.80
2019-04-04T22:50:46.343Z,85750.22
2019-04-04T22:53:13.080Z,85746.31
2019-04-04T22:55:39.852Z,85744.82
2019-04-04T22:58:06.582Z,85736.45
2019-04-04T23:00:33.387Z,85735.31
2019-04-04T23:03:00.119Z,85738.86
2019-04-04T23:05:26.858Z,85726.94
2019-04-04T23:07:53.719Z,85724.90
2019-04-04T23:10:20.450Z,85730.65
2019-04-04T23:12:47.160Z,85732.53
2019-04-04T23:15:14.033Z,85735.88
2019-04-04T23:17:40.769Z,85741.08
2019-04-04T23:20:08.187Z,85744.44
2019-04-04T23:22:34.961Z,85741.08
2019-04-04T23:25:01.984Z,85740.16
2019-04-04T23:27:28.863Z,85746.48
2019-04-04T23:29:55.631Z,85741.09
2019-04-04T23:32:22.356Z,85739.23
2019-04-04T23:34:49.096Z,85739.79
2019-04-04T23:37:15.881Z,85735.52
2019-04-04T23:39:42.625Z,85734.77
2019-04-04T23:42:09.362Z,85732.89
2019-04-04T23:44:36.134Z,85733.27
2019-04-04T23:47:02.863Z,85732.16
2019-04-04T23:49:29.584Z,85724.33
2019-04-04T23:51:56.348Z,85725.65
2019-04-04T23:54:23.067Z,85727.13
2019-04-04T23:56:49.866Z,85729.55
2019-04-04T23:59:16.599Z,85724.33
